sensor_id;sensor_type;location;lat;lon;timestamp;P1;durP1;ratioP1;P2;durP2;ratioP2
79798;SDS011;69283;48.024;11.090;2023-09-30T00:01:44;41.78;;;11.45;;
79798;SDS011;69283;48.024;11.090;2023-09-30T00:04:10;35.13;;;10.00;;
79798;SDS011;69283;48.024;11.090;2023-09-30T00:06:35;34.10;;;9.00;;
79798;SDS011;69283;48.024;11.090;2023-09-30T00:09:01;31.30;;;9.38;;
79798;SDS011;69283;48.024;11.090;2023-09-30T00:11:27;31.10;;;9.20;;
79798;SDS011;69283;48.024;11.090;2023-09-30T00:13:52;33.45;;;9.45;;
79798;SDS011;69283;48.024;11.090;2023-09-30T00:16:17;33.33;;;9.35;;
79798;SDS011;69283;48.024;11.090;2023-09-30T00:18:43;33.35;;;10.40;;
79798;SDS011;69283;48.024;11.090;2023-09-30T00:21:09;35.65;;;11.20;;
79798;SDS011;69283;48.024;11.090;2023-09-30T00:23:35;33.78;;;9.50;;
79798;SDS011;69283;48.024;11.090;2023-09-30T00:26:00;34.00;;;10.07;;
79798;SDS011;69283;48.024;11.090;2023-09-30T00:28:26;38.00;;;10.70;;
79798;SDS011;69283;48.024;11.090;2023-09-30T00:30:51;36.53;;;9.93;;
79798;SDS011;69283;48.024;11.090;2023-09-30T00:33:16;31.27;;;8.93;;
79798;SDS011;69283;48.024;11.090;2023-09-30T00:35:42;33.63;;;10.27;;
79798;SDS011;69283;48.024;11.090;2023-09-30T00:38:07;34.88;;;10.38;;
79798;SDS011;69283;48.024;11.090;2023-09-30T00:40:33;36.17;;;10.40;;
79798;SDS011;69283;48.024;11.090;2023-09-30T00:43:00;34.08;;;10.50;;
79798;SDS011;69283;48.024;11.090;2023-09-30T00:45:26;34.25;;;10.60;;
79798;SDS011;69283;48.024;11.090;2023-09-30T00:47:51;36.28;;;10.48;;
79798;SDS011;69283;48.024;11.090;2023-09-30T00:50:17;34.50;;;9.27;;
79798;SDS011;69283;48.024;11.090;2023-09-30T00:52:45;36.05;;;12.00;;
79798;SDS011;69283;48.024;11.090;2023-09-30T00:55:11;41.97;;;11.30;;
79798;SDS011;69283;48.024;11.090;2023-09-30T00:57:37;34.80;;;9.05;;
79798;SDS011;69283;48.024;11.090;2023-09-30T01:00:04;40.55;;;10.63;;
79798;SDS011;69283;48.024;11.090;2023-09-30T01:02:31;36.08;;;11.38;;
79798;SDS011;69283;48.024;11.090;2023-09-30T01:04:56;35.53;;;9.88;;
79798;SDS011;69283;48.024;11.090;2023-09-30T01:07:23;32.55;;;10.77;;
79798;SDS011;69283;48.024;11.090;2023-09-30T01:09:49;39.33;;;11.65;;
79798;SDS011;69283;48.024;11.090;2023-09-30T01:12:15;41.20;;;10.02;;
79798;SDS011;69283;48.024;11.090;2023-09-30T01:14:41;35.90;;;10.93;;
79798;SDS011;69283;48.024;11.090;2023-09-30T01:17:07;40.50;;;11.40;;
79798;SDS011;69283;48.024;11.090;2023-09-30T01:19:33;42.03;;;10.55;;
79798;SDS011;69283;48.024;11.090;2023-09-30T01:21:59;35.40;;;9.65;;
79798;SDS011;69283;48.024;11.090;2023-09-30T01:24:25;38.25;;;10.15;;
79798;SDS011;69283;48.024;11.090;2023-09-30T01:26:51;40.97;;;10.98;;
79798;SDS011;69283;48.024;11.090;2023-09-30T01:29:17;33.40;;;10.65;;
79798;SDS011;69283;48.024;11.090;2023-09-30T01:31:43;32.85;;;9.05;;
79798;SDS011;69283;48.024;11.090;2023-09-30T01:34:08;37.78;;;10.85;;
79798;SDS011;69283;48.024;11.090;2023-09-30T01:36:35;34.05;;;10.02;;
79798;SDS011;69283;48.024;11.090;2023-09-30T01:39:01;41.63;;;10.77;;
79798;SDS011;69283;48.024;11.090;2023-09-30T01:41:27;37.92;;;10.57;;
79798;SDS011;69283;48.024;11.090;2023-09-30T01:43:53;35.70;;;9.18;;
79798;SDS011;69283;48.024;11.090;2023-09-30T01:46:18;41.83;;;9.90;;
79798;SDS011;69283;48.024;11.090;2023-09-30T01:48:44;36.63;;;10.35;;
79798;SDS011;69283;48.024;11.090;2023-09-30T01:51:09;35.40;;;9.27;;
79798;SDS011;69283;48.024;11.090;2023-09-30T01:53:34;35.45;;;10.50;;
79798;SDS011;69283;48.024;11.090;2023-09-30T01:56:00;37.67;;;10.52;;
79798;SDS011;69283;48.024;11.090;2023-09-30T01:58:25;33.22;;;8.60;;
79798;SDS011;69283;48.024;11.090;2023-09-30T02:00:51;37.95;;;9.27;;
79798;SDS011;69283;48.024;11.090;2023-09-30T02:03:17;30.30;;;9.27;;
79798;SDS011;69283;48.024;11.090;2023-09-30T02:05:42;36.08;;;9.18;;
79798;SDS011;69283;48.024;11.090;2023-09-30T02:08:08;33.92;;;9.68;;
79798;SDS011;69283;48.024;11.090;2023-09-30T02:10:33;39.50;;;10.40;;
79798;SDS011;69283;48.024;11.090;2023-09-30T02:12:59;35.72;;;9.63;;
79798;SDS011;69283;48.024;11.090;2023-09-30T02:15:24;34.03;;;9.57;;
79798;SDS011;69283;48.024;11.090;2023-09-30T02:17:50;34.20;;;9.23;;
79798;SDS011;69283;48.024;11.090;2023-09-30T02:20:16;40.75;;;11.52;;
79798;SDS011;69283;48.024;11.090;2023-09-30T02:22:44;33.40;;;8.88;;
79798;SDS011;69283;48.024;11.090;2023-09-30T02:25:10;33.53;;;10.15;;
79798;SDS011;69283;48.024;11.090;2023-09-30T02:27:37;35.40;;;9.65;;
79798;SDS011;69283;48.024;11.090;2023-09-30T02:30:04;33.55;;;9.23;;
79798;SDS011;69283;48.024;11.090;2023-09-30T02:32:30;37.78;;;10.25;;
79798;SDS011;69283;48.024;11.090;2023-09-30T02:34:58;36.50;;;9.88;;
79798;SDS011;69283;48.024;11.090;2023-09-30T02:37:23;34.97;;;11.52;;
79798;SDS011;69283;48.024;11.090;2023-09-30T02:39:48;34.30;;;10.73;;
79798;SDS011;69283;48.024;11.090;2023-09-30T02:42:14;34.17;;;9.88;;
79798;SDS011;69283;48.024;11.090;2023-09-30T02:44:40;30.10;;;9.23;;
79798;SDS011;69283;48.024;11.090;2023-09-30T02:47:05;38.38;;;10.20;;
79798;SDS011;69283;48.024;11.090;2023-09-30T02:49:34;30.08;;;9.00;;
79798;SDS011;69283;48.024;11.090;2023-09-30T02:51:59;34.78;;;8.98;;
79798;SDS011;69283;48.024;11.090;2023-09-30T02:54:24;32.43;;;9.63;;
79798;SDS011;69283;48.024;11.090;2023-09-30T02:56:49;33.27;;;9.37;;
79798;SDS011;69283;48.024;11.090;2023-09-30T02:59:15;34.93;;;8.80;;
79798;SDS011;69283;48.024;11.090;2023-09-30T03:01:41;37.10;;;10.57;;
79798;SDS011;69283;48.024;11.090;2023-09-30T03:04:07;30.30;;;8.10;;
79798;SDS011;69283;48.024;11.090;2023-09-30T03:06:33;30.30;;;8.10;;
79798;SDS011;69283;48.024;11.090;2023-09-30T03:09:02;33.85;;;9.02;;
79798;SDS011;69283;48.024;11.090;2023-09-30T03:11:28;32.92;;;9.38;;
79798;SDS011;69283;48.024;11.090;2023-09-30T03:13:54;37.22;;;10.35;;
79798;SDS011;69283;48.024;11.090;2023-09-30T03:16:20;32.25;;;9.20;;
79798;SDS011;69283;48.024;11.090;2023-09-30T03:18:45;29.20;;;8.45;;
79798;SDS011;69283;48.024;11.090;2023-09-30T03:21:14;33.28;;;9.32;;
79798;SDS011;69283;48.024;11.090;2023-09-30T03:23:40;36.17;;;9.23;;
79798;SDS011;69283;48.024;11.090;2023-09-30T03:26:06;29.15;;;10.18;;
79798;SDS011;69283;48.024;11.090;2023-09-30T03:28:34;31.67;;;9.48;;
79798;SDS011;69283;48.024;11.090;2023-09-30T03:31:01;33.47;;;9.40;;
79798;SDS011;69283;48.024;11.090;2023-09-30T03:33:26;37.38;;;9.88;;
79798;SDS011;69283;48.024;11.090;2023-09-30T03:35:51;32.80;;;8.87;;
79798;SDS011;69283;48.024;11.090;2023-09-30T03:38:17;29.60;;;8.02;;
79798;SDS011;69283;48.024;11.090;2023-09-30T03:40:45;31.50;;;9.45;;
79798;SDS011;69283;48.024;11.090;2023-09-30T03:43:13;29.88;;;9.10;;
79798;SDS011;69283;48.024;11.090;2023-09-30T03:45:41;36.83;;;9.35;;
79798;SDS011;69283;48.024;11.090;2023-09-30T03:48:07;29.75;;;8.48;;
79798;SDS011;69283;48.024;11.090;2023-09-30T03:50:32;32.10;;;8.90;;
79798;SDS011;69283;48.024;11.090;2023-09-30T03:53:02;37.35;;;9.75;;
79798;SDS011;69283;48.024;11.090;2023-09-30T03:55:28;28.77;;;8.52;;
79798;SDS011;69283;48.024;11.090;2023-09-30T03:57:54;35.55;;;9.05;;
79798;SDS011;69283;48.024;11.090;2023-09-30T04:00:20;34.95;;;8.85;;
79798;SDS011;69283;48.024;11.090;2023-09-30T04:02:46;37.72;;;8.55;;
79798;SDS011;69283;48.024;11.090;2023-09-30T04:05:14;34.00;;;7.95;;
79798;SDS011;69283;48.024;11.090;2023-09-30T04:07:41;26.58;;;8.45;;
79798;SDS011;69283;48.024;11.090;2023-09-30T04:10:07;29.02;;;8.07;;
79798;SDS011;69283;48.024;11.090;2023-09-30T04:12:34;29.42;;;9.52;;
79798;SDS011;69283;48.024;11.090;2023-09-30T04:14:59;33.13;;;8.57;;
79798;SDS011;69283;48.024;11.090;2023-09-30T04:17:25;28.45;;;10.43;;
79798;SDS011;69283;48.024;11.090;2023-09-30T04:19:52;31.67;;;9.32;;
79798;SDS011;69283;48.024;11.090;2023-09-30T04:22:17;33.50;;;8.88;;
79798;SDS011;69283;48.024;11.090;2023-09-30T04:24:44;33.08;;;8.55;;
79798;SDS011;69283;48.024;11.090;2023-09-30T04:27:09;30.02;;;9.10;;
79798;SDS011;69283;48.024;11.090;2023-09-30T04:29:34;31.02;;;8.32;;
79798;SDS011;69283;48.024;11.090;2023-09-30T04:32:00;28.10;;;8.85;;
79798;SDS011;69283;48.024;11.090;2023-09-30T04:34:25;31.42;;;8.48;;
79798;SDS011;69283;48.024;11.090;2023-09-30T04:36:52;30.20;;;7.60;;
79798;SDS011;69283;48.024;11.090;2023-09-30T04:39:18;29.77;;;8.38;;
79798;SDS011;69283;48.024;11.090;2023-09-30T04:41:43;26.05;;;8.07;;
79798;SDS011;69283;48.024;11.090;2023-09-30T04:44:09;26.23;;;7.80;;
79798;SDS011;69283;48.024;11.090;2023-09-30T04:46:35;28.45;;;6.75;;
79798;SDS011;69283;48.024;11.090;2023-09-30T04:49:00;28.27;;;7.72;;
79798;SDS011;69283;48.024;11.090;2023-09-30T04:51:27;30.70;;;8.55;;
79798;SDS011;69283;48.024;11.090;2023-09-30T04:53:53;21.58;;;6.72;;
79798;SDS011;69283;48.024;11.090;2023-09-30T04:56:20;27.83;;;8.02;;
79798;SDS011;69283;48.024;11.090;2023-09-30T04:58:45;29.67;;;7.78;;
79798;SDS011;69283;48.024;11.090;2023-09-30T05:01:12;26.23;;;7.72;;
79798;SDS011;69283;48.024;11.090;2023-09-30T05:03:37;23.65;;;7.60;;
79798;SDS011;69283;48.024;11.090;2023-09-30T05:06:02;22.70;;;7.38;;
79798;SDS011;69283;48.024;11.090;2023-09-30T05:08:28;30.15;;;7.55;;
79798;SDS011;69283;48.024;11.090;2023-09-30T05:10:54;24.80;;;7.55;;
79798;SDS011;69283;48.024;11.090;2023-09-30T05:13:22;23.35;;;6.30;;
79798;SDS011;69283;48.024;11.090;2023-09-30T05:15:51;31.33;;;7.85;;
79798;SDS011;69283;48.024;11.090;2023-09-30T05:18:17;28.52;;;7.72;;
79798;SDS011;69283;48.024;11.090;2023-09-30T05:20:42;25.38;;;7.45;;
79798;SDS011;69283;48.024;11.090;2023-09-30T05:23:09;23.88;;;7.40;;
79798;SDS011;69283;48.024;11.090;2023-09-30T05:25:37;30.02;;;7.32;;
79798;SDS011;69283;48.024;11.090;2023-09-30T05:28:03;30.40;;;8.85;;
79798;SDS011;69283;48.024;11.090;2023-09-30T05:30:29;23.25;;;6.97;;
79798;SDS011;69283;48.024;11.090;2023-09-30T05:32:54;24.90;;;6.85;;
79798;SDS011;69283;48.024;11.090;2023-09-30T05:35:20;28.58;;;7.30;;
79798;SDS011;69283;48.024;11.090;2023-09-30T05:37:47;23.92;;;7.70;;
79798;SDS011;69283;48.024;11.090;2023-09-30T05:40:13;23.40;;;6.82;;
79798;SDS011;69283;48.024;11.090;2023-09-30T05:42:47;24.60;;;7.53;;
79798;SDS011;69283;48.024;11.090;2023-09-30T05:45:13;24.85;;;6.60;;
79798;SDS011;69283;48.024;11.090;2023-09-30T05:47:38;21.65;;;6.55;;
79798;SDS011;69283;48.024;11.090;2023-09-30T05:50:05;28.85;;;6.85;;
79798;SDS011;69283;48.024;11.090;2023-09-30T05:52:32;23.30;;;6.90;;
79798;SDS011;69283;48.024;11.090;2023-09-30T05:54:57;23.10;;;6.90;;
79798;SDS011;69283;48.024;11.090;2023-09-30T05:57:22;23.10;;;6.10;;
79798;SDS011;69283;48.024;11.090;2023-09-30T05:59:48;19.55;;;6.45;;
79798;SDS011;69283;48.024;11.090;2023-09-30T06:02:14;16.42;;;5.75;;
79798;SDS011;69283;48.024;11.090;2023-09-30T06:04:40;19.75;;;5.82;;
79798;SDS011;69283;48.024;11.090;2023-09-30T06:07:05;26.70;;;5.70;;
79798;SDS011;69283;48.024;11.090;2023-09-30T06:09:31;19.85;;;5.53;;
79798;SDS011;69283;48.024;11.090;2023-09-30T06:11:56;18.85;;;5.82;;
79798;SDS011;69283;48.024;11.090;2023-09-30T06:14:21;19.92;;;5.57;;
79798;SDS011;69283;48.024;11.090;2023-09-30T06:16:47;21.40;;;6.50;;
79798;SDS011;69283;48.024;11.090;2023-09-30T06:19:12;21.25;;;6.32;;
79798;SDS011;69283;48.024;11.090;2023-09-30T06:21:38;24.85;;;5.38;;
79798;SDS011;69283;48.024;11.090;2023-09-30T06:24:04;22.20;;;5.95;;
79798;SDS011;69283;48.024;11.090;2023-09-30T06:26:30;20.33;;;5.72;;
79798;SDS011;69283;48.024;11.090;2023-09-30T06:28:55;17.67;;;5.32;;
79798;SDS011;69283;48.024;11.090;2023-09-30T06:31:21;19.52;;;6.20;;
79798;SDS011;69283;48.024;11.090;2023-09-30T06:33:48;26.90;;;6.75;;
79798;SDS011;69283;48.024;11.090;2023-09-30T06:36:13;20.75;;;5.53;;
79798;SDS011;69283;48.024;11.090;2023-09-30T06:38:40;22.05;;;5.72;;
79798;SDS011;69283;48.024;11.090;2023-09-30T06:41:07;18.25;;;5.30;;
79798;SDS011;69283;48.024;11.090;2023-09-30T06:43:33;19.98;;;5.07;;
79798;SDS011;69283;48.024;11.090;2023-09-30T06:46:00;20.67;;;6.03;;
79798;SDS011;69283;48.024;11.090;2023-09-30T06:48:32;20.65;;;5.68;;
79798;SDS011;69283;48.024;11.090;2023-09-30T06:50:57;24.98;;;6.47;;
79798;SDS011;69283;48.024;11.090;2023-09-30T06:53:24;18.25;;;6.30;;
79798;SDS011;69283;48.024;11.090;2023-09-30T06:55:49;21.00;;;6.28;;
79798;SDS011;69283;48.024;11.090;2023-09-30T06:58:16;20.10;;;6.30;;
79798;SDS011;69283;48.024;11.090;2023-09-30T07:00:46;21.83;;;7.18;;
79798;SDS011;69283;48.024;11.090;2023-09-30T07:03:12;24.35;;;7.03;;
79798;SDS011;69283;48.024;11.090;2023-09-30T07:08:05;20.50;;;6.80;;
79798;SDS011;69283;48.024;11.090;2023-09-30T07:10:30;21.07;;;6.87;;
79798;SDS011;69283;48.024;11.090;2023-09-30T07:12:56;21.08;;;6.72;;
79798;SDS011;69283;48.024;11.090;2023-09-30T07:15:22;19.15;;;5.75;;
79798;SDS011;69283;48.024;11.090;2023-09-30T07:17:47;21.65;;;7.10;;
79798;SDS011;69283;48.024;11.090;2023-09-30T07:20:12;20.50;;;6.57;;
79798;SDS011;69283;48.024;11.090;2023-09-30T07:22:39;27.52;;;6.25;;
79798;SDS011;69283;48.024;11.090;2023-09-30T07:25:04;20.20;;;5.47;;
79798;SDS011;69283;48.024;11.090;2023-09-30T07:27:30;21.98;;;5.32;;
79798;SDS011;69283;48.024;11.090;2023-09-30T07:29:55;25.05;;;5.97;;
79798;SDS011;69283;48.024;11.090;2023-09-30T07:32:21;19.83;;;5.82;;
79798;SDS011;69283;48.024;11.090;2023-09-30T07:34:49;18.80;;;5.20;;
79798;SDS011;69283;48.024;11.090;2023-09-30T07:37:16;17.58;;;5.57;;
79798;SDS011;69283;48.024;11.090;2023-09-30T07:39:42;16.23;;;4.43;;
79798;SDS011;69283;48.024;11.090;2023-09-30T07:42:10;19.25;;;5.40;;
79798;SDS011;69283;48.024;11.090;2023-09-30T07:44:36;24.33;;;6.05;;
79798;SDS011;69283;48.024;11.090;2023-09-30T07:47:02;17.38;;;6.00;;
79798;SDS011;69283;48.024;11.090;2023-09-30T07:49:28;14.23;;;4.03;;
79798;SDS011;69283;48.024;11.090;2023-09-30T07:51:54;18.33;;;4.97;;
79798;SDS011;69283;48.024;11.090;2023-09-30T07:54:20;17.13;;;4.82;;
79798;SDS011;69283;48.024;11.090;2023-09-30T07:56:45;15.50;;;5.25;;
79798;SDS011;69283;48.024;11.090;2023-09-30T07:59:10;16.42;;;4.85;;
79798;SDS011;69283;48.024;11.090;2023-09-30T08:01:36;19.58;;;5.30;;
79798;SDS011;69283;48.024;11.090;2023-09-30T08:04:02;19.05;;;5.50;;
79798;SDS011;69283;48.024;11.090;2023-09-30T08:06:28;18.50;;;5.70;;
79798;SDS011;69283;48.024;11.090;2023-09-30T08:08:53;21.80;;;6.28;;
79798;SDS011;69283;48.024;11.090;2023-09-30T08:11:20;22.20;;;5.32;;
79798;SDS011;69283;48.024;11.090;2023-09-30T08:13:45;21.00;;;5.07;;
79798;SDS011;69283;48.024;11.090;2023-09-30T08:16:11;15.73;;;4.45;;
79798;SDS011;69283;48.024;11.090;2023-09-30T08:18:36;19.80;;;4.50;;
79798;SDS011;69283;48.024;11.090;2023-09-30T08:21:02;19.05;;;5.53;;
79798;SDS011;69283;48.024;11.090;2023-09-30T08:23:27;23.45;;;5.95;;
79798;SDS011;69283;48.024;11.090;2023-09-30T08:25:52;19.60;;;5.10;;
79798;SDS011;69283;48.024;11.090;2023-09-30T08:28:19;18.73;;;5.43;;
79798;SDS011;69283;48.024;11.090;2023-09-30T08:30:44;16.30;;;4.47;;
79798;SDS011;69283;48.024;11.090;2023-09-30T08:33:09;13.85;;;4.25;;
79798;SDS011;69283;48.024;11.090;2023-09-30T08:35:36;21.42;;;5.03;;
79798;SDS011;69283;48.024;11.090;2023-09-30T08:38:02;19.63;;;5.05;;
79798;SDS011;69283;48.024;11.090;2023-09-30T08:40:28;18.27;;;5.13;;
79798;SDS011;69283;48.024;11.090;2023-09-30T08:42:54;12.25;;;3.88;;
79798;SDS011;69283;48.024;11.090;2023-09-30T08:45:19;15.82;;;4.60;;
79798;SDS011;69283;48.024;11.090;2023-09-30T08:47:45;18.85;;;5.30;;
79798;SDS011;69283;48.024;11.090;2023-09-30T08:50:11;18.70;;;5.03;;
79798;SDS011;69283;48.024;11.090;2023-09-30T08:52:38;17.75;;;4.85;;
79798;SDS011;69283;48.024;11.090;2023-09-30T08:55:08;18.48;;;5.80;;
79798;SDS011;69283;48.024;11.090;2023-09-30T08:57:36;14.23;;;5.20;;
79798;SDS011;69283;48.024;11.090;2023-09-30T09:00:04;18.67;;;5.22;;
79798;SDS011;69283;48.024;11.090;2023-09-30T09:02:34;18.65;;;5.57;;
79798;SDS011;69283;48.024;11.090;2023-09-30T09:05:00;22.73;;;6.32;;
79798;SDS011;69283;48.024;11.090;2023-09-30T09:07:26;20.73;;;5.22;;
79798;SDS011;69283;48.024;11.090;2023-09-30T09:12:30;19.15;;;5.25;;
79798;SDS011;69283;48.024;11.090;2023-09-30T09:14:56;20.38;;;5.55;;
79798;SDS011;69283;48.024;11.090;2023-09-30T09:17:21;19.65;;;6.30;;
79798;SDS011;69283;48.024;11.090;2023-09-30T09:20:08;16.42;;;4.80;;
79798;SDS011;69283;48.024;11.090;2023-09-30T09:22:40;20.10;;;5.50;;
79798;SDS011;69283;48.024;11.090;2023-09-30T09:25:06;15.77;;;4.53;;
79798;SDS011;69283;48.024;11.090;2023-09-30T09:27:35;19.73;;;5.13;;
79798;SDS011;69283;48.024;11.090;2023-09-30T09:33:04;14.95;;;4.18;;
79798;SDS011;69283;48.024;11.090;2023-09-30T09:35:31;19.10;;;4.85;;
79798;SDS011;69283;48.024;11.090;2023-09-30T09:38:02;18.10;;;4.88;;
79798;SDS011;69283;48.024;11.090;2023-09-30T09:40:34;16.63;;;5.15;;
79798;SDS011;69283;48.024;11.090;2023-09-30T09:43:03;16.50;;;5.68;;
79798;SDS011;69283;48.024;11.090;2023-09-30T09:45:30;16.55;;;5.55;;
79798;SDS011;69283;48.024;11.090;2023-09-30T09:48:00;20.75;;;6.05;;
79798;SDS011;69283;48.024;11.090;2023-09-30T09:50:26;23.90;;;8.07;;
79798;SDS011;69283;48.024;11.090;2023-09-30T09:52:52;17.15;;;5.30;;
79798;SDS011;69283;48.024;11.090;2023-09-30T09:55:20;20.50;;;5.25;;
79798;SDS011;69283;48.024;11.090;2023-09-30T09:57:47;16.63;;;5.88;;
79798;SDS011;69283;48.024;11.090;2023-09-30T10:00:17;17.90;;;5.38;;
79798;SDS011;69283;48.024;11.090;2023-09-30T10:02:44;17.80;;;5.18;;
79798;SDS011;69283;48.024;11.090;2023-09-30T10:05:14;17.05;;;4.60;;
79798;SDS011;69283;48.024;11.090;2023-09-30T10:07:51;19.67;;;4.75;;
79798;SDS011;69283;48.024;11.090;2023-09-30T10:10:19;15.65;;;4.35;;
79798;SDS011;69283;48.024;11.090;2023-09-30T10:12:46;15.85;;;4.53;;
79798;SDS011;69283;48.024;11.090;2023-09-30T10:17:59;14.70;;;4.22;;
79798;SDS011;69283;48.024;11.090;2023-09-30T10:20:29;18.73;;;5.72;;
79798;SDS011;69283;48.024;11.090;2023-09-30T10:25:43;17.60;;;5.20;;
79798;SDS011;69283;48.024;11.090;2023-09-30T10:31:13;20.45;;;6.00;;
79798;SDS011;69283;48.024;11.090;2023-09-30T10:36:34;18.33;;;5.05;;
79798;SDS011;69283;48.024;11.090;2023-09-30T10:39:03;17.98;;;5.53;;
79798;SDS011;69283;48.024;11.090;2023-09-30T10:46:50;21.67;;;5.85;;
79798;SDS011;69283;48.024;11.090;2023-09-30T10:49:36;21.58;;;6.28;;
79798;SDS011;69283;48.024;11.090;2023-09-30T10:52:03;23.17;;;6.35;;
79798;SDS011;69283;48.024;11.090;2023-09-30T10:54:29;17.67;;;5.93;;
79798;SDS011;69283;48.024;11.090;2023-09-30T10:56:56;26.45;;;7.93;;
79798;SDS011;69283;48.024;11.090;2023-09-30T10:59:31;22.98;;;7.18;;
79798;SDS011;69283;48.024;11.090;2023-09-30T11:01:57;21.58;;;6.65;;
79798;SDS011;69283;48.024;11.090;2023-09-30T11:04:23;24.38;;;6.03;;
79798;SDS011;69283;48.024;11.090;2023-09-30T11:06:48;18.95;;;5.57;;
79798;SDS011;69283;48.024;11.090;2023-09-30T11:09:17;17.70;;;6.28;;
79798;SDS011;69283;48.024;11.090;2023-09-30T11:11:45;21.70;;;6.57;;
79798;SDS011;69283;48.024;11.090;2023-09-30T11:14:25;26.55;;;7.07;;
79798;SDS011;69283;48.024;11.090;2023-09-30T11:16:55;18.95;;;5.32;;
79798;SDS011;69283;48.024;11.090;2023-09-30T11:19:25;22.73;;;7.70;;
79798;SDS011;69283;48.024;11.090;2023-09-30T11:21:52;24.85;;;6.35;;
79798;SDS011;69283;48.024;11.090;2023-09-30T11:24:20;19.25;;;5.15;;
79798;SDS011;69283;48.024;11.090;2023-09-30T11:26:45;19.92;;;5.90;;
79798;SDS011;69283;48.024;11.090;2023-09-30T11:29:12;24.40;;;6.53;;
79798;SDS011;69283;48.024;11.090;2023-09-30T11:31:39;21.75;;;5.93;;
79798;SDS011;69283;48.024;11.090;2023-09-30T11:34:08;25.88;;;7.38;;
79798;SDS011;69283;48.024;11.090;2023-09-30T11:36:35;21.52;;;6.78;;
79798;SDS011;69283;48.024;11.090;2023-09-30T11:39:02;24.15;;;7.30;;
79798;SDS011;69283;48.024;11.090;2023-09-30T11:41:46;22.73;;;6.25;;
79798;SDS011;69283;48.024;11.090;2023-09-30T11:44:12;24.45;;;6.82;;
79798;SDS011;69283;48.024;11.090;2023-09-30T11:46:49;24.73;;;7.45;;
79798;SDS011;69283;48.024;11.090;2023-09-30T11:49:40;23.65;;;6.88;;
79798;SDS011;69283;48.024;11.090;2023-09-30T11:52:10;25.35;;;6.70;;
79798;SDS011;69283;48.024;11.090;2023-09-30T11:54:37;24.83;;;7.20;;
79798;SDS011;69283;48.024;11.090;2023-09-30T11:57:08;23.15;;;6.43;;
79798;SDS011;69283;48.024;11.090;2023-09-30T11:59:34;29.05;;;7.38;;
79798;SDS011;69283;48.024;11.090;2023-09-30T12:02:01;21.83;;;6.78;;
79798;SDS011;69283;48.024;11.090;2023-09-30T12:04:27;22.20;;;6.45;;
79798;SDS011;69283;48.024;11.090;2023-09-30T12:06:52;22.02;;;6.75;;
79798;SDS011;69283;48.024;11.090;2023-09-30T12:09:18;23.83;;;7.32;;
79798;SDS011;69283;48.024;11.090;2023-09-30T12:11:48;24.95;;;8.00;;
79798;SDS011;69283;48.024;11.090;2023-09-30T12:14:14;23.83;;;7.05;;
79798;SDS011;69283;48.024;11.090;2023-09-30T12:16:40;27.98;;;6.95;;
79798;SDS011;69283;48.024;11.090;2023-09-30T12:19:06;24.17;;;6.57;;
79798;SDS011;69283;48.024;11.090;2023-09-30T12:21:32;27.65;;;6.85;;
79798;SDS011;69283;48.024;11.090;2023-09-30T12:23:57;24.60;;;7.35;;
79798;SDS011;69283;48.024;11.090;2023-09-30T12:26:23;23.98;;;5.93;;
79798;SDS011;69283;48.024;11.090;2023-09-30T12:28:49;23.90;;;7.63;;
79798;SDS011;69283;48.024;11.090;2023-09-30T12:31:14;23.70;;;7.22;;
79798;SDS011;69283;48.024;11.090;2023-09-30T12:33:40;19.60;;;6.13;;
79798;SDS011;69283;48.024;11.090;2023-09-30T12:36:05;22.52;;;6.82;;
79798;SDS011;69283;48.024;11.090;2023-09-30T12:38:32;28.77;;;6.80;;
79798;SDS011;69283;48.024;11.090;2023-09-30T12:40:58;23.33;;;6.60;;
79798;SDS011;69283;48.024;11.090;2023-09-30T12:43:23;25.17;;;6.82;;
79798;SDS011;69283;48.024;11.090;2023-09-30T12:45:48;22.08;;;6.55;;
79798;SDS011;69283;48.024;11.090;2023-09-30T12:48:14;23.43;;;6.63;;
79798;SDS011;69283;48.024;11.090;2023-09-30T12:50:40;23.35;;;5.70;;
79798;SDS011;69283;48.024;11.090;2023-09-30T12:53:06;21.67;;;6.38;;
79798;SDS011;69283;48.024;11.090;2023-09-30T12:55:32;22.88;;;6.75;;
79798;SDS011;69283;48.024;11.090;2023-09-30T12:57:57;22.25;;;5.65;;
79798;SDS011;69283;48.024;11.090;2023-09-30T13:00:22;24.02;;;6.82;;
79798;SDS011;69283;48.024;11.090;2023-09-30T13:02:49;24.25;;;6.65;;
79798;SDS011;69283;48.024;11.090;2023-09-30T13:05:15;22.00;;;6.63;;
79798;SDS011;69283;48.024;11.090;2023-09-30T13:07:42;19.75;;;7.07;;
79798;SDS011;69283;48.024;11.090;2023-09-30T13:10:07;23.45;;;6.50;;
79798;SDS011;69283;48.024;11.090;2023-09-30T13:12:33;20.50;;;6.20;;
79798;SDS011;69283;48.024;11.090;2023-09-30T13:14:59;21.90;;;6.07;;
79798;SDS011;69283;48.024;11.090;2023-09-30T13:17:24;18.95;;;5.05;;
79798;SDS011;69283;48.024;11.090;2023-09-30T13:19:50;24.90;;;5.80;;
79798;SDS011;69283;48.024;11.090;2023-09-30T13:22:16;23.80;;;7.35;;
79798;SDS011;69283;48.024;11.090;2023-09-30T13:24:42;22.40;;;6.72;;
79798;SDS011;69283;48.024;11.090;2023-09-30T13:27:07;20.70;;;6.40;;
79798;SDS011;69283;48.024;11.090;2023-09-30T13:29:33;22.25;;;6.15;;
79798;SDS011;69283;48.024;11.090;2023-09-30T13:31:58;23.42;;;6.57;;
79798;SDS011;69283;48.024;11.090;2023-09-30T13:34:24;21.33;;;5.75;;
79798;SDS011;69283;48.024;11.090;2023-09-30T13:36:49;21.08;;;5.35;;
79798;SDS011;69283;48.024;11.090;2023-09-30T13:39:15;24.15;;;5.78;;
79798;SDS011;69283;48.024;11.090;2023-09-30T13:41:42;20.02;;;6.22;;
79798;SDS011;69283;48.024;11.090;2023-09-30T13:44:08;19.38;;;6.03;;
79798;SDS011;69283;48.024;11.090;2023-09-30T13:46:33;21.90;;;5.75;;
79798;SDS011;69283;48.024;11.090;2023-09-30T13:48:59;25.88;;;6.47;;
79798;SDS011;69283;48.024;11.090;2023-09-30T13:51:24;18.88;;;6.22;;
79798;SDS011;69283;48.024;11.090;2023-09-30T13:53:51;19.45;;;5.28;;
79798;SDS011;69283;48.024;11.090;2023-09-30T13:56:18;21.05;;;5.70;;
79798;SDS011;69283;48.024;11.090;2023-09-30T13:58:43;24.90;;;6.78;;
79798;SDS011;69283;48.024;11.090;2023-09-30T14:01:09;23.42;;;6.50;;
79798;SDS011;69283;48.024;11.090;2023-09-30T14:03:35;20.60;;;5.40;;
79798;SDS011;69283;48.024;11.090;2023-09-30T14:06:01;23.20;;;5.45;;
79798;SDS011;69283;48.024;11.090;2023-09-30T14:08:27;18.60;;;5.70;;
79798;SDS011;69283;48.024;11.090;2023-09-30T14:10:52;17.20;;;6.00;;
79798;SDS011;69283;48.024;11.090;2023-09-30T14:13:18;23.60;;;5.88;;
79798;SDS011;69283;48.024;11.090;2023-09-30T14:15:44;22.55;;;6.53;;
79798;SDS011;69283;48.024;11.090;2023-09-30T14:18:09;22.05;;;7.00;;
79798;SDS011;69283;48.024;11.090;2023-09-30T14:20:34;22.90;;;6.03;;
79798;SDS011;69283;48.024;11.090;2023-09-30T14:23:00;22.90;;;5.95;;
79798;SDS011;69283;48.024;11.090;2023-09-30T14:25:26;22.45;;;5.70;;
79798;SDS011;69283;48.024;11.090;2023-09-30T14:27:52;21.30;;;6.40;;
79798;SDS011;69283;48.024;11.090;2023-09-30T14:30:17;23.17;;;6.70;;
79798;SDS011;69283;48.024;11.090;2023-09-30T14:32:44;19.08;;;5.25;;
79798;SDS011;69283;48.024;11.090;2023-09-30T14:35:10;23.15;;;6.22;;
79798;SDS011;69283;48.024;11.090;2023-09-30T14:37:35;22.70;;;6.00;;
79798;SDS011;69283;48.024;11.090;2023-09-30T14:40:01;21.05;;;5.70;;
79798;SDS011;69283;48.024;11.090;2023-09-30T14:42:30;26.27;;;5.78;;